Time;durP1;ratioP1;P1;durP2;ratioP2;P2;SDS_P1;SDS_P2;PMS_P1;PMS_P2;Temp;Humidity;BMP_temperature;BMP_pressure;BME280_temperature;BME280_humidity;BME280_pressure;Samples;Min_cycle;Max_cycle;Signal;HPM_P1;HPM_P2
2022/01/31 00:00:15;;;;;;;12.70;4.38;;;;;;;;;;4953343;28;20039;-75
2022/01/31 00:02:43;;;;;;;10.60;4.15;;;;;;;;;;4971263;28;20047;-76
2022/01/31 00:05:09;;;;;;;9.80;4.40;;;;;;;;;;4958816;28;20429;-77
2022/01/31 00:07:35;;;;;;;9.77;4.05;;;;;;;;;;4953228;28;20082;-76
2022/01/31 00:10:06;;;;;;;9.13;4.45;;;;;;;;;;4957044;28;20038;-76
2022/01/31 00:12:36;;;;;;;11.73;4.13;;;;;;;;;;4976462;28;20066;-75
2022/01/31 00:15:02;;;;;;;10.20;3.20;;;;;;;;;;4973284;28;20030;-75
2022/01/31 00:17:28;;;;;;;18.67;4.05;;;;;;;;;;4972847;28;20027;-75
2022/01/31 00:19:53;;;;;;;9.02;3.10;;;;;;;;;;4969816;28;20046;-76
2022/01/31 00:22:18;;;;;;;8.77;3.20;;;;;;;;;;4953237;28;20508;-75
2022/01/31 00:24:44;;;;;;;7.85;3.20;;;;;;;;;;4952210;28;20389;-74
2022/01/31 00:27:09;;;;;;;8.70;3.15;;;;;;;;;;4952707;28;20039;-75
2022/01/31 00:29:35;;;;;;;10.25;4.65;;;;;;;;;;4951997;28;20031;-75
2022/01/31 00:32:00;;;;;;;13.60;5.13;;;;;;;;;;4967427;28;20031;-75
2022/01/31 00:34:26;;;;;;;12.38;4.57;;;;;;;;;;4971283;28;20022;-75
2022/01/31 00:36:51;;;;;;;11.40;5.15;;;;;;;;;;4971884;28;20023;-75
2022/01/31 00:39:17;;;;;;;11.85;4.90;;;;;;;;;;4971606;28;20030;-75
2022/01/31 00:41:42;;;;;;;15.13;5.22;;;;;;;;;;4955714;28;20070;-74
2022/01/31 00:47:10;;;;;;;11.60;4.78;;;;;;;;;;4947666;28;20507;-76
2022/01/31 00:49:37;;;;;;;;;;;;;;;;;;4952940;28;20046;-75
2022/01/31 00:52:03;;;;;;;14.65;4.57;;;;;;;;;;4967004;28;19914;-75
2022/01/31 00:54:29;;;;;;;12.15;3.90;;;;;;;;;;4970855;28;20089;-75
2022/01/31 00:56:55;;;;;;;9.25;4.53;;;;;;;;;;4971661;28;20030;-76
2022/01/31 00:59:21;;;;;;;10.55;3.97;;;;;;;;;;4971075;28;20461;-76
2022/01/31 01:01:47;;;;;;;9.25;4.22;;;;;;;;;;4956363;28;20109;-75
2022/01/31 01:04:12;;;;;;;10.50;4.13;;;;;;;;;;4971069;28;20487;-77
2022/01/31 01:06:38;;;;;;;12.00;4.45;;;;;;;;;;4971303;28;20425;-75
2022/01/31 01:09:04;;;;;;;9.98;4.50;;;;;;;;;;4970526;28;20196;-76
2022/01/31 01:11:29;;;;;;;10.55;3.78;;;;;;;;;;4971153;28;20054;-76
2022/01/31 01:13:54;;;;;;;17.33;5.15;;;;;;;;;;4966830;28;20257;-76
2022/01/31 01:16:20;;;;;;;10.43;3.90;;;;;;;;;;4971216;28;20431;-75
2022/01/31 01:18:45;;;;;;;11.70;4.13;;;;;;;;;;4970827;28;20085;-76
2022/01/31 01:21:10;;;;;;;9.57;4.00;;;;;;;;;;4972052;28;20030;-76
2022/01/31 01:23:36;;;;;;;9.77;4.40;;;;;;;;;;4959789;28;20098;-76
2022/01/31 01:26:01;;;;;;;11.27;4.10;;;;;;;;;;4951094;28;20066;-76
2022/01/31 01:28:27;;;;;;;11.90;4.25;;;;;;;;;;4950479;28;20066;-75
2022/01/31 01:30:55;;;;;;;8.45;3.60;;;;;;;;;;4951303;28;20038;-76
2022/01/31 01:33:22;;;;;;;9.38;3.80;;;;;;;;;;4960377;28;20528;-77
2022/01/31 01:35:50;;;;;;;9.90;3.67;;;;;;;;;;4970269;28;20034;-76
2022/01/31 01:38:17;;;;;;;13.77;3.40;;;;;;;;;;4971003;28;20503;-77
2022/01/31 01:40:45;;;;;;;9.95;3.80;;;;;;;;;;4971195;28;20058;-76
2022/01/31 01:43:11;;;;;;;9.07;3.03;;;;;;;;;;4962402;28;20040;-77
2022/01/31 01:45:38;;;;;;;6.18;2.80;;;;;;;;;;4950785;28;20034;-76
2022/01/31 01:48:06;;;;;;;11.60;3.10;;;;;;;;;;4951724;28;20035;-72
2022/01/31 01:50:33;;;;;;;9.35;2.28;;;;;;;;;;4951368;28;20058;-76
2022/01/31 01:52:59;;;;;;;8.90;3.00;;;;;;;;;;4953286;28;20035;-76
2022/01/31 01:55:25;;;;;;;8.93;2.88;;;;;;;;;;4970152;28;20026;-75
2022/01/31 01:57:50;;;;;;;14.75;2.70;;;;;;;;;;4971073;28;20041;-76
2022/01/31 02:00:19;;;;;;;9.82;3.22;;;;;;;;;;4970524;28;20078;-76
2022/01/31 02:02:45;;;;;;;8.80;2.55;;;;;;;;;;4967382;28;20433;-76
2022/01/31 02:05:11;;;;;;;11.57;2.75;;;;;;;;;;4950802;28;20027;-76
2022/01/31 02:07:37;;;;;;;12.27;3.38;;;;;;;;;;4950724;28;20023;-77
2022/01/31 02:10:04;;;;;;;7.93;2.42;;;;;;;;;;4951361;28;20437;-76
2022/01/31 02:12:40;;;;;;;8.95;2.83;;;;;;;;;;4953642;28;20031;-76
2022/01/31 02:15:08;;;;;;;10.90;2.83;;;;;;;;;;4968480;28;20401;-76
2022/01/31 02:17:33;;;;;;;12.20;3.55;;;;;;;;;;4971024;28;20061;-77
2022/01/31 02:19:58;;;;;;;13.75;3.17;;;;;;;;;;4970529;28;20458;-78
2022/01/31 02:22:24;;;;;;;9.27;2.50;;;;;;;;;;4970885;28;20027;-79
2022/01/31 02:24:49;;;;;;;9.70;2.50;;;;;;;;;;4950575;28;20027;-74
2022/01/31 02:27:14;;;;;;;8.32;3.03;;;;;;;;;;4956233;28;20066;-74
2022/01/31 02:29:40;;;;;;;7.07;2.85;;;;;;;;;;4954860;28;20175;-76
2022/01/31 02:32:05;;;;;;;10.25;2.60;;;;;;;;;;4956173;28;20498;-77
2022/01/31 02:34:31;;;;;;;5.20;2.17;;;;;;;;;;4972661;28;20035;-77
2022/01/31 02:36:56;;;;;;;11.00;2.65;;;;;;;;;;4974556;28;20035;-74
2022/01/31 02:39:21;;;;;;;5.38;2.10;;;;;;;;;;4974640;28;20459;-75
2022/01/31 02:41:48;;;;;;;9.65;2.90;;;;;;;;;;4973664;28;20019;-75
2022/01/31 02:44:15;;;;;;;10.85;2.95;;;;;;;;;;4963634;28;20034;-77
2022/01/31 02:46:48;;;;;;;10.18;3.17;;;;;;;;;;4963922;28;20074;-77
2022/01/31 02:49:16;;;;;;;10.73;2.60;;;;;;;;;;4955155;28;20058;-76
2022/01/31 02:51:46;;;;;;;9.15;2.60;;;;;;;;;;4955380;28;20500;-78
2022/01/31 02:54:12;;;;;;;11.43;3.50;;;;;;;;;;4955624;28;20477;-77
2022/01/31 02:56:40;;;;;;;9.23;2.85;;;;;;;;;;4954227;28;20031;-77
2022/01/31 02:59:06;;;;;;;12.00;4.15;;;;;;;;;;4955149;28;20055;-76
2022/01/31 03:01:34;;;;;;;9.68;2.58;;;;;;;;;;4953587;28;20129;-77
2022/01/31 03:03:59;;;;;;;12.48;3.35;;;;;;;;;;4974318;28;20504;-76
2022/01/31 03:06:25;;;;;;;13.55;4.00;;;;;;;;;;4972235;28;20035;-78
2022/01/31 03:08:50;;;;;;;8.00;3.38;;;;;;;;;;4973995;28;20041;-76
2022/01/31 03:11:15;;;;;;;11.23;3.17;;;;;;;;;;4973329;28;20110;-75
2022/01/31 03:13:41;;;;;;;9.82;3.05;;;;;;;;;;5003694;23;20052;-75
2022/01/31 03:16:07;;;;;;;11.05;3.05;;;;;;;;;;4992199;28;20056;-77
2022/01/31 03:18:32;;;;;;;8.23;3.10;;;;;;;;;;4993289;28;20329;-77
2022/01/31 03:20:58;;;;;;;9.10;3.10;;;;;;;;;;4992688;28;20056;-75
2022/01/31 03:23:23;;;;;;;7.53;3.15;;;;;;;;;;4992788;28;20026;-77
2022/01/31 03:25:49;;;;;;;10.52;3.65;;;;;;;;;;4992299;28;20096;-76
2022/01/31 03:28:14;;;;;;;13.25;3.25;;;;;;;;;;4992860;28;20026;-76
2022/01/31 03:30:40;;;;;;;10.35;3.25;;;;;;;;;;4991879;28;20031;-75
2022/01/31 03:33:05;;;;;;;7.07;3.03;;;;;;;;;;4992914;28;20022;-73
2022/01/31 03:35:30;;;;;;;11.60;3.55;;;;;;;;;;4991811;28;20018;-76
2022/01/31 03:37:55;;;;;;;11.63;3.53;;;;;;;;;;4992431;28;20042;-77
2022/01/31 03:40:21;;;;;;;13.10;4.30;;;;;;;;;;4991620;28;20038;-77
2022/01/31 03:42:46;;;;;;;7.28;2.92;;;;;;;;;;4992529;28;20426;-74
2022/01/31 03:45:12;;;;;;;12.02;3.45;;;;;;;;;;4992081;28;20034;-76
2022/01/31 03:47:44;;;;;;;15.13;4.75;;;;;;;;;;4991930;28;20049;-76
2022/01/31 03:50:14;;;;;;;13.32;3.38;;;;;;;;;;4992172;28;20034;-73
2022/01/31 03:52:42;;;;;;;7.55;3.28;;;;;;;;;;4991858;28;20030;-76
2022/01/31 03:55:08;;;;;;;9.10;3.45;;;;;;;;;;4992109;28;20033;-74
2022/01/31 03:57:33;;;;;;;8.75;3.70;;;;;;;;;;4991834;28;20033;-75
2022/01/31 04:00:00;;;;;;;7.82;3.38;;;;;;;;;;4991683;28;20029;-75
2022/01/31 04:02:25;;;;;;;11.45;4.03;;;;;;;;;;4991764;28;20038;-77
2022/01/31 04:04:50;;;;;;;10.52;3.50;;;;;;;;;;4992188;28;20053;-75
2022/01/31 04:07:16;;;;;;;11.73;4.15;;;;;;;;;;4991593;28;20132;-76
2022/01/31 04:09:41;;;;;;;10.43;3.63;;;;;;;;;;4991878;28;20037;-74
2022/01/31 04:12:07;;;;;;;11.05;3.40;;;;;;;;;;4991628;28;20072;-75
2022/01/31 04:14:32;;;;;;;14.60;3.95;;;;;;;;;;4991666;28;20022;-76
2022/01/31 04:16:59;;;;;;;13.63;4.18;;;;;;;;;;4991494;28;20057;-77
2022/01/31 04:19:24;;;;;;;12.15;3.78;;;;;;;;;;4991620;28;20034;-76
2022/01/31 04:21:50;;;;;;;15.70;4.95;;;;;;;;;;4991671;28;20086;-78
2022/01/31 04:24:22;;;;;;;10.80;3.55;;;;;;;;;;4991727;28;20077;-75
2022/01/31 04:26:57;;;;;;;8.82;3.55;;;;;;;;;;4991066;28;20026;-77
2022/01/31 04:29:22;;;;;;;9.35;4.15;;;;;;;;;;4991882;28;20033;-75
2022/01/31 04:31:51;;;;;;;13.95;4.13;;;;;;;;;;4990878;28;20338;-77
2022/01/31 04:34:17;;;;;;;6.13;3.80;;;;;;;;;;4991310;28;20555;-74
2022/01/31 04:36:42;;;;;;;8.85;3.50;;;;;;;;;;4990996;28;20085;-76
2022/01/31 04:39:07;;;;;;;10.00;3.67;;;;;;;;;;4991557;28;20022;-75
2022/01/31 04:41:33;;;;;;;10.25;3.67;;;;;;;;;;4990290;28;20030;-75
2022/01/31 04:44:04;;;;;;;14.13;3.95;;;;;;;;;;4991309;28;20026;-76
2022/01/31 04:46:30;;;;;;;12.10;4.40;;;;;;;;;;4990875;28;20023;-76
2022/01/31 04:48:55;;;;;;;11.98;4.70;;;;;;;;;;4991112;28;20023;-76
2022/01/31 04:51:21;;;;;;;7.63;3.65;;;;;;;;;;4990605;28;20030;-78
2022/01/31 04:53:46;;;;;;;18.65;4.75;;;;;;;;;;4991064;28;20630;-73
2022/01/31 04:56:11;;;;;;;12.68;4.43;;;;;;;;;;4990133;28;20029;-76
2022/01/31 04:58:37;;;;;;;8.80;3.90;;;;;;;;;;4991571;28;20034;-77
2022/01/31 05:01:02;;;;;;;9.55;3.92;;;;;;;;;;4991419;28;20038;-78
2022/01/31 05:03:28;;;;;;;7.47;3.22;;;;;;;;;;4991678;28;20036;-73
2022/01/31 05:05:53;;;;;;;12.35;4.00;;;;;;;;;;4991027;28;20054;-78
2022/01/31 05:08:24;;;;;;;7.68;3.53;;;;;;;;;;4990417;28;20118;-78
2022/01/31 05:10:50;;;;;;;12.30;4.50;;;;;;;;;;4991222;28;20030;-78
2022/01/31 05:13:16;;;;;;;8.80;3.65;;;;;;;;;;4991359;28;20030;-76
2022/01/31 05:15:45;;;;;;;7.55;3.55;;;;;;;;;;4991437;28;20029;-78
2022/01/31 05:18:11;;;;;;;8.95;3.72;;;;;;;;;;4991132;28;20045;-79
2022/01/31 05:20:37;;;;;;;7.32;3.17;;;;;;;;;;4992242;28;20037;-77
2022/01/31 05:23:06;;;;;;;20.35;4.15;;;;;;;;;;4990396;28;20104;-77
2022/01/31 05:25:32;;;;;;;5.75;3.20;;;;;;;;;;4990510;28;20026;-77
2022/01/31 05:27:58;;;;;;;9.70;3.58;;;;;;;;;;4990563;28;20365;-75
2022/01/31 05:30:23;;;;;;;6.25;3.17;;;;;;;;;;4991014;28;20035;-74
2022/01/31 05:32:49;;;;;;;5.22;2.75;;;;;;;;;;4990035;28;20120;-77
2022/01/31 05:35:14;;;;;;;8.27;3.38;;;;;;;;;;4990317;28;20034;-77
2022/01/31 05:37:41;;;;;;;7.47;3.38;;;;;;;;;;4990202;28;20026;-77
2022/01/31 05:40:07;;;;;;;6.20;3.17;;;;;;;;;;4988936;28;20073;-75
2022/01/31 05:42:32;;;;;;;5.00;2.65;;;;;;;;;;4989878;28;20077;-77
2022/01/31 05:44:58;;;;;;;7.45;2.72;;;;;;;;;;4990627;28;20109;-77
2022/01/31 05:47:23;;;;;;;10.55;2.92;;;;;;;;;;4988946;28;20105;-77
2022/01/31 05:49:48;;;;;;;5.95;3.15;;;;;;;;;;4990553;28;20464;-78
2022/01/31 05:52:14;;;;;;;6.53;2.33;;;;;;;;;;4989565;28;20503;-77
2022/01/31 05:54:41;;;;;;;4.85;2.80;;;;;;;;;;4989936;28;20508;-77
2022/01/31 05:57:08;;;;;;;8.02;3.15;;;;;;;;;;4989970;28;20034;-77
2022/01/31 05:59:35;;;;;;;8.75;3.17;;;;;;;;;;4991909;28;20086;-76
2022/01/31 06:02:01;;;;;;;4.93;2.60;;;;;;;;;;4993696;28;20030;-77
2022/01/31 06:04:30;;;;;;;7.90;2.95;;;;;;;;;;4994598;28;20033;-77
2022/01/31 06:06:55;;;;;;;8.85;3.05;;;;;;;;;;4993393;28;20034;-77
2022/01/31 06:09:21;;;;;;;5.10;2.20;;;;;;;;;;4994130;28;20112;-78
2022/01/31 06:11:49;;;;;;;5.97;2.50;;;;;;;;;;4993663;28;20130;-76
2022/01/31 06:14:15;;;;;;;3.25;2.30;;;;;;;;;;4992946;28;20026;-77
2022/01/31 06:16:41;;;;;;;3.80;1.70;;;;;;;;;;4993713;28;20030;-71
2022/01/31 06:19:07;;;;;;;2.92;1.85;;;;;;;;;;4993353;28;20041;-76
2022/01/31 06:21:32;;;;;;;2.47;1.85;;;;;;;;;;4993170;28;20034;-75
2022/01/31 06:23:57;;;;;;;2.53;2.15;;;;;;;;;;4991015;28;20119;-76
2022/01/31 06:26:23;;;;;;;3.67;2.30;;;;;;;;;;4989666;28;20034;-76
2022/01/31 06:28:49;;;;;;;6.00;3.25;;;;;;;;;;4992831;28;20508;-76
2022/01/31 06:31:15;;;;;;;7.47;4.07;;;;;;;;;;4997959;28;20408;-75
2022/01/31 06:33:40;;;;;;;6.40;3.83;;;;;;;;;;4992593;28;20496;-76
2022/01/31 06:36:06;;;;;;;4.53;2.45;;;;;;;;;;4992852;28;20034;-75
2022/01/31 06:38:31;;;;;;;4.68;2.90;;;;;;;;;;4993162;28;20125;-75
2022/01/31 06:40:57;;;;;;;7.80;3.13;;;;;;;;;;4991890;28;20038;-75
2022/01/31 06:43:22;;;;;;;4.38;2.80;;;;;;;;;;4992575;28;20524;-75
2022/01/31 06:45:47;;;;;;;3.67;2.50;;;;;;;;;;4992591;28;20117;-75
2022/01/31 06:48:13;;;;;;;5.70;2.40;;;;;;;;;;4992102;28;20069;-75
2022/01/31 06:50:39;;;;;;;4.57;2.90;;;;;;;;;;4992823;28;20034;-76
2022/01/31 06:53:05;;;;;;;10.10;6.40;;;;;;;;;;4992425;28;20026;-76
2022/01/31 06:55:33;;;;;;;3.80;2.90;;;;;;;;;;4991658;28;20038;-76
2022/01/31 06:57:59;;;;;;;4.93;2.15;;;;;;;;;;4982803;28;20068;-76
2022/01/31 07:00:24;;;;;;;7.15;3.72;;;;;;;;;;4988906;28;20414;-74
2022/01/31 07:02:50;;;;;;;5.85;2.85;;;;;;;;;;4988382;28;20484;-75
2022/01/31 07:05:17;;;;;;;5.38;2.40;;;;;;;;;;4990861;28;20025;-74
2022/01/31 07:07:44;;;;;;;5.38;3.30;;;;;;;;;;4981893;28;20472;-76
2022/01/31 07:10:10;;;;;;;5.18;2.90;;;;;;;;;;4989901;28;20082;-75
2022/01/31 07:12:39;;;;;;;5.15;2.53;;;;;;;;;;4986553;28;20504;-75
2022/01/31 07:15:09;;;;;;;5.43;2.40;;;;;;;;;;4988706;28;20362;-75
2022/01/31 07:17:36;;;;;;;7.50;2.28;;;;;;;;;;4989518;28;20022;-75
2022/01/31 07:20:04;;;;;;;4.85;2.20;;;;;;;;;;4987171;28;20041;-75
2022/01/31 07:22:35;;;;;;;7.90;2.30;;;;;;;;;;4986176;28;20116;-75
2022/01/31 07:25:04;;;;;;;2.97;1.50;;;;;;;;;;4986281;28;20056;-76
2022/01/31 07:27:30;;;;;;;5.10;1.80;;;;;;;;;;4983094;28;20141;-75
2022/01/31 07:29:56;;;;;;;2.88;1.70;;;;;;;;;;4979857;28;20451;-76
2022/01/31 07:32:21;;;;;;;3.17;1.77;;;;;;;;;;4989058;28;20100;-75
2022/01/31 07:34:49;;;;;;;5.35;2.13;;;;;;;;;;4989246;28;20026;-77
2022/01/31 07:37:14;;;;;;;6.70;2.30;;;;;;;;;;4996673;28;20033;-77
2022/01/31 07:39:41;;;;;;;6.55;2.60;;;;;;;;;;4985108;28;20023;-75
2022/01/31 07:42:06;;;;;;;2.88;2.08;;;;;;;;;;4973779;28;20058;-75
2022/01/31 07:44:31;;;;;;;4.32;2.35;;;;;;;;;;4987703;28;20097;-76
2022/01/31 07:46:57;;;;;;;4.65;1.90;;;;;;;;;;4988720;28;20049;-77
2022/01/31 07:49:22;;;;;;;5.85;1.95;;;;;;;;;;4987527;28;20296;-76
2022/01/31 07:51:48;;;;;;;3.47;1.60;;;;;;;;;;4988780;28;20132;-76
2022/01/31 07:54:13;;;;;;;4.47;1.60;;;;;;;;;;4987341;28;20022;-76
2022/01/31 07:56:38;;;;;;;3.25;2.10;;;;;;;;;;4986481;28;20026;-76
2022/01/31 07:59:04;;;;;;;4.13;1.60;;;;;;;;;;4987667;28;20122;-77
2022/01/31 08:01:29;;;;;;;3.55;1.50;;;;;;;;;;4986913;28;20045;-76
2022/01/31 08:03:55;;;;;;;3.35;1.40;;;;;;;;;;4987184;28;20388;-74
2022/01/31 08:06:20;;;;;;;2.22;1.50;;;;;;;;;;4987969;28;20214;-75
2022/01/31 08:08:45;;;;;;;2.90;1.50;;;;;;;;;;4986858;28;20026;-77
2022/01/31 08:11:11;;;;;;;9.10;3.33;;;;;;;;;;4987939;28;20121;-75
2022/01/31 08:13:37;;;;;;;5.75;2.60;;;;;;;;;;4985284;28;20085;-74
2022/01/31 08:18:38;;;;;;;9.97;5.00;;;;;;;;;;4987387;28;20026;-73
2022/01/31 08:21:05;;;;;;;5.75;2.83;;;;;;;;;;4988163;28;20030;-74
2022/01/31 08:23:31;;;;;;;4.18;1.90;;;;;;;;;;4985168;28;20022;-74
2022/01/31 08:25:59;;;;;;;5.05;2.40;;;;;;;;;;4984396;28;20022;-74
2022/01/31 08:28:33;;;;;;;3.03;2.00;;;;;;;;;;4989344;28;20137;-73
2022/01/31 08:31:06;;;;;;;8.93;2.00;;;;;;;;;;4997622;28;20037;-73
2022/01/31 08:33:38;;;;;;;7.80;2.53;;;;;;;;;;4991244;28;20105;-74
2022/01/31 08:36:06;;;;;;;6.97;3.13;;;;;;;;;;4987227;28;20081;-73
2022/01/31 08:38:33;;;;;;;6.85;2.80;;;;;;;;;;4987402;28;20114;-74
2022/01/31 08:40:59;;;;;;;4.15;1.55;;;;;;;;;;4986955;28;20026;-74
2022/01/31 08:43:24;;;;;;;4.97;2.03;;;;;;;;;;4986480;28;20095;-73
2022/01/31 08:45:51;;;;;;;4.40;1.77;;;;;;;;;;4986140;28;20022;-77
2022/01/31 08:48:16;;;;;;;5.45;1.70;;;;;;;;;;4987526;28;20034;-73
2022/01/31 08:50:42;;;;;;;5.30;2.17;;;;;;;;;;4985766;28;20538;-74
2022/01/31 08:53:07;;;;;;;7.65;2.47;;;;;;;;;;4985991;28;20160;-73
2022/01/31 08:55:35;;;;;;;6.15;1.80;;;;;;;;;;4985228;28;20061;-74
2022/01/31 08:58:00;;;;;;;10.70;3.85;;;;;;;;;;4984548;28;20046;-75
2022/01/31 09:00:33;;;;;;;2.95;1.30;;;;;;;;;;4986101;28;20030;-74
2022/01/31 09:03:16;;;;;;;9.27;3.20;;;;;;;;;;4986917;28;20476;-73
2022/01/31 09:05:41;;;;;;;9.13;1.40;;;;;;;;;;4986007;28;20105;-75
2022/01/31 09:08:07;;;;;;;5.95;1.70;;;;;;;;;;4984142;28;20113;-74
2022/01/31 09:10:32;;;;;;;5.18;2.40;;;;;;;;;;4981593;28;20048;-76
2022/01/31 09:12:58;;;;;;;5.85;1.88;;;;;;;;;;5007398;22;20045;-74
2022/01/31 09:15:24;;;;;;;5.07;1.55;;;;;;;;;;4984805;28;20030;-75
2022/01/31 09:17:49;;;;;;;5.57;1.50;;;;;;;;;;4986720;28;20518;-72
2022/01/31 09:20:15;;;;;;;4.32;1.95;;;;;;;;;;4983528;28;20340;-76
2022/01/31 09:22:42;;;;;;;3.05;1.30;;;;;;;;;;4982647;28;20026;-73
2022/01/31 09:25:08;;;;;;;3.72;1.33;;;;;;;;;;4984799;28;20108;-73
2022/01/31 09:27:33;;;;;;;2.25;1.10;;;;;;;;;;4985926;28;20460;-73
2022/01/31 09:29:59;;;;;;;5.15;1.40;;;;;;;;;;4985839;28;20032;-72
2022/01/31 09:32:25;;;;;;;5.60;1.42;;;;;;;;;;4986915;28;20026;-72
2022/01/31 09:34:52;;;;;;;7.18;1.85;;;;;;;;;;4984967;28;20039;-72
2022/01/31 09:37:21;;;;;;;4.00;1.88;;;;;;;;;;4985652;28;20034;-72
2022/01/31 09:39:48;;;;;;;5.43;1.13;;;;;;;;;;4986044;28;20546;-71
2022/01/31 09:42:20;;;;;;;2.05;1.20;;;;;;;;;;4986114;28;20061;-71
2022/01/31 09:45:02;;;;;;;5.30;1.30;;;;;;;;;;4998221;28;20036;-71
2022/01/31 09:50:12;;;;;;;3.70;1.45;;;;;;;;;;4988319;28;20471;-73
2022/01/31 09:52:38;;;;;;;2.50;1.20;;;;;;;;;;4985683;28;20447;-72
2022/01/31 09:55:04;;;;;;;3.80;1.42;;;;;;;;;;4986384;28;20038;-72
2022/01/31 09:57:30;;;;;;;4.35;1.65;;;;;;;;;;4986476;28;20018;-72
2022/01/31 09:59:55;;;;;;;6.65;1.30;;;;;;;;;;4988293;28;20030;-70
2022/01/31 10:02:21;;;;;;;4.82;1.67;;;;;;;;;;4988361;28;20077;-73
2022/01/31 10:04:48;;;;;;;5.88;1.80;;;;;;;;;;4989603;28;20026;-72
2022/01/31 10:07:14;;;;;;;6.32;1.27;;;;;;;;;;4989423;28;20026;-71
2022/01/31 10:09:43;;;;;;;4.43;2.03;;;;;;;;;;4989902;28;20106;-73
2022/01/31 10:17:43;;;;;;;4.45;1.67;;;;;;;;;;4988379;28;20032;-73
2022/01/31 10:20:17;;;;;;;3.00;1.20;;;;;;;;;;4988492;28;20029;-73
2022/01/31 10:22:43;;;;;;;5.15;1.40;;;;;;;;;;4989085;28;20018;-72
2022/01/31 10:25:12;;;;;;;3.67;1.67;;;;;;;;;;4989270;28;20028;-73
2022/01/31 10:27:38;;;;;;;4.68;1.23;;;;;;;;;;4988751;28;20058;-73
2022/01/31 10:30:13;;;;;;;7.43;1.55;;;;;;;;;;4988727;28;20034;-73
2022/01/31 10:32:41;;;;;;;6.25;1.25;;;;;;;;;;4988942;28;20283;-73
2022/01/31 10:35:19;;;;;;;6.22;1.48;;;;;;;;;;4989379;28;20065;-74
2022/01/31 10:37:45;;;;;;;2.88;1.25;;;;;;;;;;4989215;28;20026;-73
2022/01/31 10:53:45;;;;;;;5.22;1.42;;;;;;;;;;4993134;28;20109;-73
2022/01/31 10:56:11;;;;;;;5.70;1.60;;;;;;;;;;4992460;28;20177;-73
2022/01/31 10:58:56;;;;;;;4.63;1.50;;;;;;;;;;4992830;28;20555;-72
2022/01/31 11:01:22;;;;;;;6.80;1.30;;;;;;;;;;4992290;28;20068;-73
2022/01/31 11:03:48;;;;;;;3.72;1.20;;;;;;;;;;4991522;28;20058;-74
2022/01/31 11:06:13;;;;;;;3.88;0.98;;;;;;;;;;4991658;28;20014;-73
2022/01/31 11:08:39;;;;;;;4.18;1.10;;;;;;;;;;4982358;28;20460;-73
2022/01/31 11:11:06;;;;;;;4.07;1.15;;;;;;;;;;4984498;28;20042;-73
2022/01/31 11:13:33;;;;;;;6.43;1.27;;;;;;;;;;4980769;28;20030;-74
2022/01/31 11:15:59;;;;;;;3.05;1.00;;;;;;;;;;4991946;28;20043;-73
2022/01/31 11:18:28;;;;;;;5.15;1.58;;;;;;;;;;4991696;28;20394;-73
2022/01/31 11:20:58;;;;;;;3.60;1.23;;;;;;;;;;4992534;28;20508;-71
2022/01/31 11:23:27;;;;;;;3.63;1.30;;;;;;;;;;4983684;28;20069;-73
2022/01/31 11:25:56;;;;;;;2.75;1.17;;;;;;;;;;4972307;28;20092;-72
2022/01/31 11:28:22;;;;;;;1.55;0.70;;;;;;;;;;4972180;28;20045;-71
2022/01/31 11:30:48;;;;;;;5.88;1.65;;;;;;;;;;4986631;28;20133;-72
2022/01/31 11:33:14;;;;;;;3.50;1.00;;;;;;;;;;4992219;28;20093;-71
2022/01/31 11:35:40;;;;;;;6.43;1.30;;;;;;;;;;4991458;28;20030;-72
2022/01/31 11:38:05;;;;;;;4.88;1.30;;;;;;;;;;4990282;28;20160;-73
2022/01/31 11:40:31;;;;;;;6.82;1.67;;;;;;;;;;4991541;28;20112;-71
2022/01/31 11:42:56;;;;;;;4.40;1.40;;;;;;;;;;4991281;28;20036;-72
2022/01/31 11:45:28;;;;;;;7.55;1.67;;;;;;;;;;4991554;28;20030;-73
2022/01/31 11:47:57;;;;;;;5.72;1.30;;;;;;;;;;4990974;28;20026;-72
2022/01/31 11:50:24;;;;;;;5.32;1.45;;;;;;;;;;4991648;28;20034;-73
2022/01/31 11:52:58;;;;;;;5.03;1.08;;;;;;;;;;4991185;28;20404;-74
2022/01/31 11:55:29;;;;;;;4.18;1.60;;;;;;;;;;4991752;28;20523;-72
2022/01/31 11:57:57;;;;;;;2.63;1.20;;;;;;;;;;4991251;28;20125;-71
2022/01/31 12:00:24;;;;;;;5.53;1.52;;;;;;;;;;4991879;28;20101;-72
2022/01/31 12:02:55;;;;;;;4.10;1.50;;;;;;;;;;4991439;28;20073;-73
2022/01/31 12:05:28;;;;;;;7.20;1.52;;;;;;;;;;4991953;28;20019;-73
2022/01/31 12:08:07;;;;;;;;;;;;;;;;;;4990187;28;20365;-71
2022/01/31 12:10:37;;;;;;;6.10;1.42;;;;;;;;;;4991681;28;19910;-72
2022/01/31 12:13:46;;;;;;;5.97;1.38;;;;;;;;;;4990855;28;20125;-74
2022/01/31 12:16:45;;;;;;;6.57;1.60;;;;;;;;;;4991378;28;20026;-73
2022/01/31 12:22:09;;;;;;;3.38;1.17;;;;;;;;;;4991362;28;20385;-73
2022/01/31 12:24:37;;;;;;;3.35;1.35;;;;;;;;;;4990700;28;20022;-75
2022/01/31 12:27:17;;;;;;;5.95;1.20;;;;;;;;;;4978966;28;20528;-75
2022/01/31 12:29:45;;;;;;;4.97;1.20;;;;;;;;;;4971512;28;20035;-74
2022/01/31 12:32:15;;;;;;;4.30;1.17;;;;;;;;;;4975578;28;20481;-74
2022/01/31 12:35:02;;;;;;;6.30;1.60;;;;;;;;;;5009985;28;20049;-74
2022/01/31 12:37:36;;;;;;;4.90;1.50;;;;;;;;;;5011029;28;20074;-73
2022/01/31 12:40:08;;;;;;;4.13;1.58;;;;;;;;;;5010375;28;20050;-75
2022/01/31 12:43:07;;;;;;;4.45;1.20;;;;;;;;;;5007628;28;20034;-75
2022/01/31 12:45:54;;;;;;;6.20;1.50;;;;;;;;;;4988832;28;20026;-75
2022/01/31 12:48:23;;;;;;;9.38;1.70;;;;;;;;;;4989450;28;20515;-73
2022/01/31 12:50:48;;;;;;;6.70;1.05;;;;;;;;;;4991235;28;20033;-74
2022/01/31 12:53:23;;;;;;;9.00;1.65;;;;;;;;;;4990200;28;20109;-74
2022/01/31 12:56:03;;;;;;;6.95;1.52;;;;;;;;;;4990538;28;20408;-74
2022/01/31 12:58:33;;;;;;;4.28;1.20;;;;;;;;;;4990256;28;20030;-75
2022/01/31 13:01:11;;;;;;;7.30;2.00;;;;;;;;;;4985296;28;20042;-75
2022/01/31 13:03:38;;;;;;;3.20;1.10;;;;;;;;;;4989093;28;20096;-76
2022/01/31 13:06:03;;;;;;;7.20;1.90;;;;;;;;;;4974616;28;20481;-74
2022/01/31 13:08:29;;;;;;;5.50;1.23;;;;;;;;;;4985693;28;20037;-75
2022/01/31 13:10:55;;;;;;;4.75;1.77;;;;;;;;;;4990289;28;20127;-74
2022/01/31 13:13:36;;;;;;;4.80;1.55;;;;;;;;;;4989741;28;20471;-76
2022/01/31 13:16:05;;;;;;;6.75;1.48;;;;;;;;;;4989932;28;20022;-75
2022/01/31 13:18:33;;;;;;;5.00;1.40;;;;;;;;;;4989184;28;20042;-73
2022/01/31 13:20:59;;;;;;;7.32;1.23;;;;;;;;;;4990459;28;20380;-71
2022/01/31 13:23:26;;;;;;;8.02;1.20;;;;;;;;;;4989696;28;20030;-74
2022/01/31 13:26:04;;;;;;;7.00;1.30;;;;;;;;;;4990113;28;20443;-73
2022/01/31 13:28:30;;;;;;;7.68;1.20;;;;;;;;;;4989039;28;20030;-73
2022/01/31 13:31:11;;;;;;;7.72;1.50;;;;;;;;;;4989918;28;20030;-74
2022/01/31 13:33:47;;;;;;;5.03;1.70;;;;;;;;;;4989515;28;20193;-74
2022/01/31 13:36:13;;;;;;;7.13;1.70;;;;;;;;;;4990171;28;20032;-75
2022/01/31 13:38:39;;;;;;;5.68;1.58;;;;;;;;;;4989206;28;20034;-73
2022/01/31 13:41:05;;;;;;;11.60;2.38;;;;;;;;;;4989769;28;20412;-73
2022/01/31 13:43:34;;;;;;;3.28;1.75;;;;;;;;;;4989041;28;20026;-72
2022/01/31 13:46:23;;;;;;;3.45;1.00;;;;;;;;;;4989824;28;20030;-75
2022/01/31 13:49:08;;;;;;;3.63;1.00;;;;;;;;;;4989363;28;20032;-73
2022/01/31 13:51:42;;;;;;;5.47;1.40;;;;;;;;;;4988582;28;20030;-73
2022/01/31 13:54:14;;;;;;;6.80;1.40;;;;;;;;;;4989623;28;20034;-73
2022/01/31 13:56:52;;;;;;;5.17;1.20;;;;;;;;;;4989823;28;20050;-73
2022/01/31 13:59:19;;;;;;;4.38;1.10;;;;;;;;;;4989062;28;20030;-73
2022/01/31 14:01:45;;;;;;;5.30;1.40;;;;;;;;;;4989627;28;20030;-73
2022/01/31 14:04:11;;;;;;;4.95;1.40;;;;;;;;;;4988522;28;20038;-74
2022/01/31 14:06:37;;;;;;;3.75;1.35;;;;;;;;;;4989880;28;20058;-73
2022/01/31 14:09:07;;;;;;;4.95;1.40;;;;;;;;;;4989310;28;20093;-74
2022/01/31 14:11:38;;;;;;;5.47;1.33;;;;;;;;;;4989569;28;20149;-72
2022/01/31 14:14:03;;;;;;;3.15;1.08;;;;;;;;;;4987606;28;20033;-72
2022/01/31 14:16:34;;;;;;;2.83;1.27;;;;;;;;;;4988736;28;20026;-74
2022/01/31 14:19:08;;;;;;;3.28;1.40;;;;;;;;;;4989023;28;20034;-74
2022/01/31 14:21:35;;;;;;;3.65;1.23;;;;;;;;;;4991732;28;20030;-73
2022/01/31 14:24:02;;;;;;;5.75;1.10;;;;;;;;;;4992930;28;20033;-72
2022/01/31 14:26:39;;;;;;;3.22;1.20;;;;;;;;;;4993777;28;20038;-72
2022/01/31 14:29:06;;;;;;;3.35;1.67;;;;;;;;;;4992708;28;20439;-74
2022/01/31 14:31:38;;;;;;;3.65;1.55;;;;;;;;;;4993423;28;20280;-73
2022/01/31 14:34:05;;;;;;;4.68;1.35;;;;;;;;;;4993447;28;20479;-75
2022/01/31 14:36:50;;;;;;;4.50;2.20;;;;;;;;;;4992297;28;20054;-74
2022/01/31 14:42:00;;;;;;;7.10;1.80;;;;;;;;;;4973764;28;20447;-73
2022/01/31 14:47:18;;;;;;;4.25;1.10;;;;;;;;;;4973839;28;20499;-73
2022/01/31 14:49:49;;;;;;;4.13;1.15;;;;;;;;;;4986871;28;20034;-73
2022/01/31 14:52:15;;;;;;;4.32;1.10;;;;;;;;;;4992898;28;20053;-74
2022/01/31 14:54:43;;;;;;;7.28;1.10;;;;;;;;;;4992155;28;20058;-74
2022/01/31 14:57:09;;;;;;;3.75;1.20;;;;;;;;;;4992589;28;20120;-74
2022/01/31 14:59:35;;;;;;;4.80;1.40;;;;;;;;;;4992423;28;20121;-74
2022/01/31 15:02:01;;;;;;;7.47;2.70;;;;;;;;;;4997413;28;20542;-74
2022/01/31 15:04:28;;;;;;;5.63;2.53;;;;;;;;;;5011162;28;20036;-75
2022/01/31 15:06:53;;;;;;;4.10;1.15;;;;;;;;;;4991983;28;20023;-73
2022/01/31 15:09:20;;;;;;;6.65;1.48;;;;;;;;;;4991334;28;20037;-74
2022/01/31 15:11:46;;;;;;;5.65;2.05;;;;;;;;;;4992611;28;20030;-74
2022/01/31 15:14:12;;;;;;;5.95;2.45;;;;;;;;;;4992884;28;20113;-74
2022/01/31 15:16:38;;;;;;;4.55;1.17;;;;;;;;;;4994834;28;20113;-74
2022/01/31 15:19:04;;;;;;;6.95;1.45;;;;;;;;;;5000788;28;20084;-74